Aviation Digital Data Service (ADDS)

Output produced by TAFs form (0220 UTC 05 August 2015)
found at http://aviationweather.gov/adds/tafs/
 
KROW 042334Z 0500/0524 VRB05KT P6SM FEW100 
     FM052300 15007KT P6SM SCT150